KEKX

Addington Field Airport

Elizabethtown, Kentucky, USA
METAR KEKX 161555Z AUTO 23010G16KT 10SM CLR 02/00 A3010 RMK AO2 P0007 T00230004
Observed Flight Rules
Nov-16 @ 15:55 UTC (27 minutes ago) Visual Flight Rules
Wind Visibility Clouds
230° at 10 knots
 Gusting to 16 knots
10 miles
  • Clear skies
Temperatures Readings Precipitation
Current 2°C / 36°F
Dewpoint 0°C / 32°F
Humidity 87%
Altimeter 30.1" Hg
Pressure 1019 hPa
Current Rain 0.07
METAR KEKX 161555Z AUTO 23010G16KT 10SM CLR 02/00 A3010 RMK AO2 P0007 T00230004
Observed Flight Rules
Nov-16 @ 15:55 UTC
(27 minutes ago)
VFR
Wind Visibility
230° at 10 knots
 Gusting to 16 knots
10 miles
Clouds
  • Clear skies
Temperature Dewpoint
2°C / 36°F 0°C / 32°F
Humidity Altimeter Pressure
87% 30.1" Hg 1019 hPa
Current Rain
0.07